Time;durP1;ratioP1;P1;durP2;ratioP2;P2;SDS_P1;SDS_P2;PMS_P1;PMS_P2;Temp;Humidity;BMP_temperature;BMP_pressure;BME280_temperature;BME280_humidity;BME280_pressure;Samples;Min_cycle;Max_cycle;Signal;HPM_P1;HPM_P2
2024/02/23 00:05:07;;;;;;;;;;;8.70;1.00;;;;;;5094508;28;19919;-79
2024/02/23 00:13:39;;;;;;;;;;;8.60;1.00;;;;;;5094103;28;20026;-83
2024/02/23 00:16:04;;;;;;;;;;;8.60;1.00;;;;;;5097268;28;19947;-82
2024/02/23 00:18:31;;;;;;;;;;;8.60;1.00;;;;;;5094353;28;19962;-79
2024/02/23 00:21:02;;;;;;;;;;;8.60;1.00;;;;;;5093875;28;19912;-79
2024/02/23 00:23:31;;;;;;;;;;;8.50;1.00;;;;;;5084905;28;19912;-79
2024/02/23 00:32:03;;;;;;;;;;;8.50;1.00;;;;;;5091735;28;19978;-79
2024/02/23 00:40:45;;;;;;;;;;;8.30;1.00;;;;;;5093828;28;19977;-79
2024/02/23 00:43:10;;;;;;;;;;;8.30;1.00;;;;;;5093586;28;19908;-79
2024/02/23 00:51:55;;;;;;;;;;;8.20;1.00;;;;;;5097612;28;20386;-79
2024/02/23 00:57:29;;;;;;;;;;;8.10;1.00;;;;;;5099810;28;19923;-79
2024/02/23 01:06:01;;;;;;;;;;;8.00;1.00;;;;;;5098374;28;19961;-79
2024/02/23 01:11:29;;;;;;;;;;;8.00;1.00;;;;;;5100488;28;19920;-79
2024/02/23 01:16:57;;;;;;;;;;;8.00;1.00;;;;;;5097367;28;20275;-80
2024/02/23 01:19:23;;;;;;;;;;;7.90;1.00;;;;;;5112128;28;19917;-76
2024/02/23 01:21:56;;;;;;;;;;;7.90;1.00;;;;;;5108522;28;19957;-75
2024/02/23 01:24:21;;;;;;;;;;;7.90;1.00;;;;;;5087227;28;19995;-74
2024/02/23 01:29:50;;;;;;;;;;;7.70;1.00;;;;;;5113008;28;20283;-76
2024/02/23 01:35:25;;;;;;;;;;;7.60;1.00;;;;;;5097235;28;19955;-76
2024/02/23 01:38:20;;;;;;;;;;;7.50;1.00;;;;;;5097765;28;20002;-75
2024/02/23 01:40:55;;;;;;;;;;;7.50;1.00;;;;;;5106200;28;20340;-75
2024/02/23 01:43:21;;;;;;;;;;;7.60;1.00;;;;;;5096597;28;19966;-75
2024/02/23 01:45:46;;;;;;;;;;;7.60;1.00;;;;;;5096780;28;19916;-76
2024/02/23 01:48:20;;;;;;;;;;;7.60;1.00;;;;;;5096501;28;19912;-75
2024/02/23 01:51:01;;;;;;;;;;;7.70;1.00;;;;;;5097025;28;19908;-75
2024/02/23 01:56:32;;;;;;;;;;;7.70;1.00;;;;;;5103688;28;20393;-75
2024/02/23 01:59:03;;;;;;;;;;;7.70;1.00;;;;;;5097135;28;20298;-75
2024/02/23 02:01:32;;;;;;;;;;;7.70;1.00;;;;;;5114191;28;19955;-76
2024/02/23 02:07:01;;;;;;;;;;;7.70;1.00;;;;;;5076108;28;19916;-81
2024/02/23 02:15:39;;;;;;;;;;;7.50;1.00;;;;;;5089714;28;20015;-80
2024/02/23 02:24:13;;;;;;;;;;;7.20;1.00;;;;;;5107732;28;19974;-79
2024/02/23 02:29:43;;;;;;;;;;;7.00;1.00;;;;;;5086232;28;19915;-80
2024/02/23 02:38:14;;;;;;;;;;;6.80;1.00;;;;;;5095402;28;19931;-80
2024/02/23 02:43:43;;;;;;;;;;;6.80;1.00;;;;;;5096675;28;20015;-79
2024/02/23 02:49:11;;;;;;;;;;;6.80;1.00;;;;;;5095031;28;20001;-80
2024/02/23 02:52:13;;;;;;;;;;;6.90;1.00;;;;;;5107279;28;20374;-75
2024/02/23 02:54:50;;;;;;;;;;;6.90;1.00;;;;;;5104897;28;19961;-76
2024/02/23 02:57:49;;;;;;;;;;;6.80;1.00;;;;;;5098586;28;20056;-75
2024/02/23 03:00:37;;;;;;;;;;;6.90;1.00;;;;;;5114186;28;20421;-76
2024/02/23 03:03:19;;;;;;;;;;;6.80;1.00;;;;;;5097697;28;20359;-75
2024/02/23 03:08:48;;;;;;;;;;;6.70;1.00;;;;;;5086092;28;19918;-79
2024/02/23 03:11:13;;;;;;;;;;;6.70;1.00;;;;;;5094912;28;19911;-79
2024/02/23 03:13:39;;;;;;;;;;;6.60;1.00;;;;;;5094350;28;19919;-79
2024/02/23 03:16:05;;;;;;;;;;;6.30;1.00;;;;;;5078071;28;19912;-79
2024/02/23 03:18:30;;;;;;;;;;;6.30;1.00;;;;;;5097531;28;19916;-79
2024/02/23 03:21:15;;;;;;;;;;;6.20;1.00;;;;;;5095336;28;19908;-75
2024/02/23 03:23:55;;;;;;;;;;;6.20;1.00;;;;;;5095839;28;19923;-75
2024/02/23 03:26:32;;;;;;;;;;;6.20;1.00;;;;;;5094691;28;19982;-75
2024/02/23 03:29:01;;;;;;;;;;;6.30;1.00;;;;;;5094660;28;19934;-76
2024/02/23 03:31:44;;;;;;;;;;;6.30;1.00;;;;;;5087984;28;19912;-75
2024/02/23 03:34:20;;;;;;;;;;;6.40;1.00;;;;;;5094679;28;19908;-75
2024/02/23 03:37:19;;;;;;;;;;;6.50;1.00;;;;;;5095119;28;19931;-76
2024/02/23 03:39:55;;;;;;;;;;;6.40;1.00;;;;;;5103328;28;19960;-76
2024/02/23 03:42:52;;;;;;;;;;;6.30;1.00;;;;;;5056242;28;19908;-76
2024/02/23 03:45:37;;;;;;;;;;;6.30;1.00;;;;;;5088960;28;20351;-76
2024/02/23 03:48:08;;;;;;;;;;;6.30;1.00;;;;;;5091446;28;20104;-75
2024/02/23 03:53:38;;;;;;;;;;;6.30;1.00;;;;;;5091351;28;20390;-80
2024/02/23 04:02:31;;;;;;;;;;;6.20;1.00;;;;;;5094464;28;20007;-79
2024/02/23 04:05:20;;;;;;;;;;;6.20;1.00;;;;;;5095729;28;20272;-79
2024/02/23 04:10:48;;;;;;;;;;;6.10;1.00;;;;;;5081492;28;19919;-79
2024/02/23 04:16:16;;;;;;;;;;;6.20;1.00;;;;;;5090010;28;20356;-79
2024/02/23 04:25:15;;;;;;;;;;;6.40;1.00;;;;;;5093710;28;19919;-79
2024/02/23 04:33:47;;;;;;;;;;;6.30;1.00;;;;;;5100835;28;19958;-79
2024/02/23 04:39:49;;;;;;;;;;;6.40;1.00;;;;;;5104150;28;19984;-76
2024/02/23 04:42:20;;;;;;;;;;;6.40;1.00;;;;;;5093843;28;19916;-76
2024/02/23 04:44:49;;;;;;;;;;;6.30;1.00;;;;;;5093542;28;19916;-75
2024/02/23 04:47:20;;;;;;;;;;;6.20;1.00;;;;;;5093753;28;19920;-75
2024/02/23 04:49:45;;;;;;;;;;;6.20;1.00;;;;;;5082437;28;19915;-75
2024/02/23 04:52:13;;;;;;;;;;;6.10;1.00;;;;;;5099829;28;19912;-75
2024/02/23 04:54:50;;;;;;;;;;;6.00;1.00;;;;;;5096516;28;19965;-75
2024/02/23 04:57:43;;;;;;;;;;;6.00;1.00;;;;;;5080274;28;19915;-75
2024/02/23 05:00:09;;;;;;;;;;;5.80;1.00;;;;;;5093703;28;19915;-76
2024/02/23 05:02:35;;;;;;;;;;;5.70;1.00;;;;;;5099135;28;19913;-75
2024/02/23 05:05:04;;;;;;;;;;;5.50;1.00;;;;;;5081927;28;19998;-76
2024/02/23 05:07:32;;;;;;;;;;;5.50;1.00;;;;;;5114218;28;20677;-76
2024/02/23 05:09:58;;;;;;;;;;;5.40;1.00;;;;;;5077351;28;19977;-75
2024/02/23 05:12:31;;;;;;;;;;;5.30;1.00;;;;;;5092480;28;20420;-75
2024/02/23 05:15:25;;;;;;;;;;;5.30;1.00;;;;;;5095949;28;19918;-75
2024/02/23 05:18:08;;;;;;;;;;;5.20;1.00;;;;;;5086413;28;19999;-77
2024/02/23 05:23:56;;;;;;;;;;;5.10;1.00;;;;;;5093721;28;19919;-87
2024/02/23 05:29:44;;;;;;;;;;;4.90;1.00;;;;;;5083116;28;20420;-77
2024/02/23 05:38:38;;;;;;;;;;;4.80;1.00;;;;;;5087917;28;20428;-79
2024/02/23 05:41:11;;;;;;;;;;;4.70;1.00;;;;;;5100065;28;20008;-80
2024/02/23 05:43:37;;;;;;;;;;;4.70;1.00;;;;;;5090954;28;19916;-81
2024/02/23 05:46:02;;;;;;;;;;;4.80;1.00;;;;;;5102189;28;19966;-82
2024/02/23 05:48:32;;;;;;;;;;;4.80;1.00;;;;;;5096786;28;19908;-79
2024/02/23 05:51:32;;;;;;;;;;;4.90;1.00;;;;;;5096817;28;19915;-80
2024/02/23 05:54:02;;;;;;;;;;;4.90;1.00;;;;;;5079326;28;19908;-79
2024/02/23 05:59:32;;;;;;;;;;;5.00;1.00;;;;;;5085216;28;19919;-79
2024/02/23 06:02:32;;;;;;;;;;;5.00;1.00;;;;;;5101678;28;20313;-79
2024/02/23 06:05:32;;;;;;;;;;;5.00;1.00;;;;;;5080996;28;19913;-80
2024/02/23 06:08:02;;;;;;;;;;;5.00;1.00;;;;;;5102906;28;19911;-76
2024/02/23 06:10:59;;;;;;;;;;;5.00;1.00;;;;;;5109432;28;19908;-76
2024/02/23 06:16:28;;;;;;;;;;;5.00;1.00;;;;;;5096050;28;19957;-75
2024/02/23 06:19:26;;;;;;;;;;;5.10;1.00;;;;;;5105508;28;19915;-82
2024/02/23 06:22:09;;;;;;;;;;;5.20;1.00;;;;;;5088784;28;19912;-78
2024/02/23 06:25:02;;;;;;;;;;;5.20;1.00;;;;;;5093271;28;19916;-80
2024/02/23 06:30:30;;;;;;;;;;;5.30;1.00;;;;;;5087640;28;19971;-81
2024/02/23 06:33:32;;;;;;;;;;;5.40;1.00;;;;;;5072478;28;19948;-80
2024/02/23 06:36:03;;;;;;;;;;;5.40;1.00;;;;;;5087039;28;19908;-80
2024/02/23 06:41:32;;;;;;;;;;;5.60;1.00;;;;;;5075444;28;19919;-80
2024/02/23 06:43:57;;;;;;;;;;;5.70;1.00;;;;;;5100143;28;19919;-80
2024/02/23 06:46:41;;;;;;;;;;;5.80;1.00;;;;;;5095784;28;19923;-80
2024/02/23 06:55:33;;;;;;;;;;;5.90;1.00;;;;;;5091879;28;20388;-79
2024/02/23 06:58:32;;;;;;;;;;;5.90;1.00;;;;;;5095600;28;19991;-79
2024/02/23 07:04:02;;;;;;;;;;;6.10;1.00;;;;;;5074882;28;19919;-79
2024/02/23 07:07:07;;;;;;;;;;;6.10;1.00;;;;;;5106263;28;19947;-79
2024/02/23 07:09:56;;;;;;;;;;;6.10;1.00;;;;;;5087408;28;19908;-80
2024/02/23 07:15:38;;;;;;;;;;;6.10;1.00;;;;;;5083361;28;19919;-79
2024/02/23 07:18:32;;;;;;;;;;;6.30;1.00;;;;;;5082554;28;20030;-81
2024/02/23 07:24:02;;;;;;;;;;;6.50;1.00;;;;;;5086496;28;19923;-81
2024/02/23 07:26:32;;;;;;;;;;;6.50;1.00;;;;;;5095445;28;20010;-80
2024/02/23 07:29:02;;;;;;;;;;;6.50;1.00;;;;;;5085184;28;19915;-81
2024/02/23 07:32:02;;;;;;;;;;;6.60;1.00;;;;;;5071695;28;19909;-80
2024/02/23 07:34:28;;;;;;;;;;;6.60;1.00;;;;;;5087272;28;19915;-80
2024/02/23 07:36:54;;;;;;;;;;;6.60;1.00;;;;;;5094301;28;19916;-80
2024/02/23 07:42:53;;;;;;;;;;;6.40;1.00;;;;;;5094222;28;19934;-80
2024/02/23 07:48:21;;;;;;;;;;;6.40;1.00;;;;;;5104057;28;20001;-80
2024/02/23 07:59:56;;;;;;;;;;;6.60;1.00;;;;;;5091744;28;19957;-80
2024/02/23 08:02:32;;;;;;;;;;;6.60;1.00;;;;;;5090446;28;19999;-80
2024/02/23 08:08:02;;;;;;;;;;;6.90;1.00;;;;;;5091534;28;19915;-78
2024/02/23 08:11:02;;;;;;;;;;;7.20;1.00;;;;;;5099395;28;20393;-78
2024/02/23 08:14:02;;;;;;;;;;;7.20;1.00;;;;;;5096891;28;20329;-78
2024/02/23 08:16:28;;;;;;;;;;;7.30;1.00;;;;;;5092083;28;19912;-78
2024/02/23 08:18:54;;;;;;;;;;;7.40;1.00;;;;;;5092928;28;19916;-78
2024/02/23 08:21:32;;;;;;;;;;;7.40;1.00;;;;;;5093187;28;19919;-78
2024/02/23 08:24:02;;;;;;;;;;;7.50;1.00;;;;;;5092953;28;19912;-78
2024/02/23 08:26:44;;;;;;;;;;;7.60;1.00;;;;;;5087764;28;19949;-77
2024/02/23 08:32:20;;;;;;;;;;;7.80;1.00;;;;;;5080636;28;19921;-78
2024/02/23 08:35:03;;;;;;;;;;;7.80;1.00;;;;;;5100306;28;19908;-77
2024/02/23 08:37:31;;;;;;;;;;;7.80;1.00;;;;;;5102595;28;19908;-78
2024/02/23 08:39:57;;;;;;;;;;;7.90;1.00;;;;;;5108390;28;19912;-80
2024/02/23 08:42:38;;;;;;;;;;;8.10;1.00;;;;;;5102790;28;20026;-79
2024/02/23 08:45:04;;;;;;;;;;;8.00;1.00;;;;;;5086277;28;19995;-80
2024/02/23 08:47:34;;;;;;;;;;;7.90;1.00;;;;;;5079008;28;20015;-80
2024/02/23 08:50:02;;;;;;;;;;;8.00;1.00;;;;;;5073889;28;19908;-79
2024/02/23 08:52:32;;;;;;;;;;;8.10;1.00;;;;;;5089867;28;19923;-80
2024/02/23 08:55:33;;;;;;;;;;;8.00;1.00;;;;;;5073786;28;19920;-79
2024/02/23 08:58:32;;;;;;;;;;;8.00;1.00;;;;;;5099700;28;20351;-79
2024/02/23 09:00:57;;;;;;;;;;;8.00;1.00;;;;;;5069564;28;19913;-79
2024/02/23 09:03:32;;;;;;;;;;;8.00;1.00;;;;;;5092330;28;19935;-78
2024/02/23 09:09:02;;;;;;;;;;;8.00;1.00;;;;;;5086698;28;19935;-79
2024/02/23 09:11:32;;;;;;;;;;;7.80;1.00;;;;;;5108894;28;19943;-79
2024/02/23 09:14:32;;;;;;;;;;;7.80;1.00;;;;;;5093217;28;19912;-79
2024/02/23 09:17:09;;;;;;;;;;;7.80;1.00;;;;;;5095161;28;19912;-79
2024/02/23 09:22:39;;;;;;;;;;;8.00;1.00;;;;;;5070341;28;20344;-79
2024/02/23 09:25:32;;;;;;;;;;;8.00;1.00;;;;;;5074339;28;20012;-79
2024/02/23 09:31:03;;;;;;;;;;;8.00;1.00;;;;;;5072285;28;19916;-78
2024/02/23 09:34:02;;;;;;;;;;;7.90;1.00;;;;;;5075865;28;19909;-79
2024/02/23 09:37:02;;;;;;;;;;;7.80;1.00;;;;;;5074036;28;19965;-79
2024/02/23 09:39:32;;;;;;;;;;;7.80;1.00;;;;;;5081649;28;19979;-76
2024/02/23 09:42:32;;;;;;;;;;;7.80;1.00;;;;;;5074969;28;19944;-78
2024/02/23 09:45:20;;;;;;;;;;;7.80;1.00;;;;;;5071348;28;19923;-77
2024/02/23 09:48:20;;;;;;;;;;;7.80;1.00;;;;;;5063989;28;19962;-76
2024/02/23 09:51:08;;;;;;;;;;;8.00;1.00;;;;;;5076288;28;19908;-78
2024/02/23 09:53:36;;;;;;;;;;;8.00;1.00;;;;;;5071035;28;19934;-78
2024/02/23 09:56:03;;;;;;;;;;;8.10;1.00;;;;;;5079221;28;19973;-78
2024/02/23 09:58:39;;;;;;;;;;;8.30;1.00;;;;;;5067526;28;19913;-77
2024/02/23 10:10:08;;;;;;;;;;;9.30;1.00;;;;;;5085881;28;19912;-78
2024/02/23 10:27:57;;;;;;;;;;;9.70;1.00;;;;;;5070220;28;20455;-79
2024/02/23 10:30:22;;;;;;;;;;;9.70;1.00;;;;;;5070914;28;19999;-79
2024/02/23 10:36:14;;;;;;;;;;;9.90;1.00;;;;;;5077375;28;19915;-79
2024/02/23 10:48:26;;;;;;;;;;;10.50;1.00;;;;;;5062128;28;19919;-79
2024/02/23 10:53:55;;;;;;;;;;;10.00;1.00;;;;;;5068589;28;19915;-79
2024/02/23 10:56:28;;;;;;;;;;;11.30;1.00;;;;;;5067741;28;19909;-79
2024/02/23 10:59:27;;;;;;;;;;;10.00;1.00;;;;;;5088865;28;19914;-79
2024/02/23 11:02:28;;;;;;;;;;;9.90;1.00;;;;;;5076551;28;19919;-79
2024/02/23 11:07:56;;;;;;;;;;;9.90;1.00;;;;;;5062332;28;19924;-79
2024/02/23 11:19:45;;;;;;;;;;;10.00;1.00;;;;;;5060080;28;19924;-79
2024/02/23 11:25:34;;;;;;;;;;;10.10;1.00;;;;;;5074536;28;20409;-78
2024/02/23 11:28:26;;;;;;;;;;;10.10;1.00;;;;;;5071219;28;19948;-77
2024/02/23 11:34:20;;;;;;;;;;;10.20;1.00;;;;;;5068735;28;19966;-82
2024/02/23 11:42:54;;;;;;;;;;;10.30;1.00;;;;;;5074771;28;19953;-79
2024/02/23 11:51:29;;;;;;;;;;;9.60;1.00;;;;;;5068993;28;19955;-82
2024/02/23 11:56:57;;;;;;;;;;;9.30;1.00;;;;;;5068700;28;19989;-78
2024/02/23 12:02:25;;;;;;;;;;;9.80;1.00;;;;;;5086954;28;19939;-78
2024/02/23 12:04:57;;;;;;;;;;;10.20;1.00;;;;;;5082180;28;20344;-84
2024/02/23 12:10:27;;;;;;;;;;;10.20;1.00;;;;;;5070135;28;19915;-85
2024/02/23 12:12:53;;;;;;;;;;;10.10;1.00;;;;;;5085063;28;19923;-86
2024/02/23 12:15:28;;;;;;;;;;;10.30;1.00;;;;;;5053365;28;20386;-85
2024/02/23 12:18:03;;;;;;;;;;;10.20;1.00;;;;;;5052589;28;19943;-84
2024/02/23 12:26:34;;;;;;;;;;;10.30;1.00;;;;;;5056837;28;19923;-77
2024/02/23 12:29:21;;;;;;;;;;;10.00;1.00;;;;;;5061025;28;19917;-77
2024/02/23 12:31:46;;;;;;;;;;;10.00;1.00;;;;;;5074391;28;19989;-76
2024/02/23 12:34:27;;;;;;;;;;;10.20;1.00;;;;;;5078726;28;20438;-76
2024/02/23 12:36:52;;;;;;;;;;;10.20;1.00;;;;;;5073914;28;20426;-75
2024/02/23 12:42:53;;;;;;;;;;;9.90;1.00;;;;;;5074077;28;19958;-78
2024/02/23 12:45:18;;;;;;;;;;;9.80;1.00;;;;;;5077676;28;20375;-77
2024/02/23 12:47:57;;;;;;;;;;;9.70;1.00;;;;;;5082789;28;19920;-81
2024/02/23 12:50:22;;;;;;;;;;;9.70;1.00;;;;;;5077778;28;19915;-81
2024/02/23 12:56:27;;;;;;;;;;;9.80;1.00;;;;;;5071971;28;19920;-82
2024/02/23 12:58:57;;;;;;;;;;;9.70;1.00;;;;;;5072655;28;19915;-82
2024/02/23 13:08:03;;;;;;;;;;;9.80;1.00;;;;;;5098150;28;20005;-87
2024/02/23 13:28:57;;;;;;;;;;;9.80;1.00;;;;;;5057453;28;20395;-75
2024/02/23 13:31:22;;;;;;;;;;;10.10;1.00;;;;;;5074731;28;19912;-74
2024/02/23 13:33:57;;;;;;;;;;;10.30;1.00;;;;;;5081932;28;19935;-75
2024/02/23 13:36:45;;;;;;;;;;;10.40;1.00;;;;;;5076869;28;19913;-76
2024/02/23 13:39:33;;;;;;;;;;;10.50;1.00;;;;;;5092272;28;19908;-75
2024/02/23 13:41:59;;;;;;;;;;;10.80;1.00;;;;;;5080860;28;20416;-74
2024/02/23 13:44:33;;;;;;;;;;;11.00;1.00;;;;;;5075037;28;19920;-75
2024/02/23 13:47:27;;;;;;;;;;;11.40;1.00;;;;;;5075604;28;19917;-79
2024/02/23 13:49:52;;;;;;;;;;;11.20;1.00;;;;;;5082077;28;19990;-75
2024/02/23 13:52:18;;;;;;;;;;;11.20;1.00;;;;;;5081893;28;19955;-75
2024/02/23 13:54:43;;;;;;;;;;;11.00;1.00;;;;;;5073091;28;20027;-75
2024/02/23 13:57:15;;;;;;;;;;;10.90;1.00;;;;;;5081878;28;19963;-78
2024/02/23 14:02:44;;;;;;;;;;;10.50;1.00;;;;;;5073490;28;19920;-78
2024/02/23 14:11:16;;;;;;;;;;;10.40;1.00;;;;;;5076572;28;20007;-77
2024/02/23 14:13:57;;;;;;;;;;;10.30;1.00;;;;;;5076520;28;19944;-75
2024/02/23 14:16:51;;;;;;;;;;;10.40;1.00;;;;;;5078276;28;19978;-75
2024/02/23 14:19:16;;;;;;;;;;;10.50;1.00;;;;;;5056561;28;19920;-74
2024/02/23 14:21:43;;;;;;;;;;;10.40;1.00;;;;;;5074846;28;19913;-73
2024/02/23 14:27:12;;;;;;;;;;;10.80;1.00;;;;;;5076626;28;19919;-73
2024/02/23 14:29:39;;;;;;;;;;;10.50;1.00;;;;;;5083564;28;19912;-75
2024/02/23 14:32:05;;;;;;;;;;;10.50;1.00;;;;;;5079771;28;19997;-75
2024/02/23 14:34:32;;;;;;;;;;;10.20;1.00;;;;;;5075583;28;19999;-75
2024/02/23 14:37:03;;;;;;;;;;;10.10;1.00;;;;;;5076904;28;20279;-74
2024/02/23 14:39:29;;;;;;;;;;;10.20;1.00;;;;;;5063159;28;19963;-74
2024/02/23 14:41:57;;;;;;;;;;;10.40;1.00;;;;;;5064908;28;19916;-74
2024/02/23 14:44:27;;;;;;;;;;;10.40;1.00;;;;;;5068886;28;19916;-74
2024/02/23 14:47:09;;;;;;;;;;;10.40;1.00;;;;;;5079160;28;20556;-75
2024/02/23 14:49:51;;;;;;;;;;;10.30;1.00;;;;;;5075621;28;19916;-75
2024/02/23 14:52:21;;;;;;;;;;;10.30;1.00;;;;;;5074033;28;19999;-75
2024/02/23 14:54:51;;;;;;;;;;;10.20;1.00;;;;;;5085363;28;20255;-75
2024/02/23 14:57:21;;;;;;;;;;;10.10;1.00;;;;;;5079572;28;19916;-76
2024/02/23 15:00:04;;;;;;;;;;;10.00;1.00;;;;;;5076908;28;19947;-75
2024/02/23 15:02:45;;;;;;;;;;;9.90;1.00;;;;;;5075316;28;19912;-75
2024/02/23 15:05:15;;;;;;;;;;;10.20;1.00;;;;;;5086892;28;19913;-75
2024/02/23 15:07:45;;;;;;;;;;;10.20;1.00;;;;;;5085112;28;20411;-75
2024/02/23 15:10:11;;;;;;;;;;;10.30;1.00;;;;;;5080661;28;19920;-75
2024/02/23 15:12:36;;;;;;;;;;;10.60;1.00;;;;;;5057557;28;19908;-75
2024/02/23 15:15:03;;;;;;;;;;;10.50;1.00;;;;;;5068788;28;19920;-75
2024/02/23 15:17:47;;;;;;;;;;;10.60;1.00;;;;;;5074366;28;19913;-79
2024/02/23 15:20:15;;;;;;;;;;;10.60;1.00;;;;;;5093917;28;19919;-75
2024/02/23 15:22:57;;;;;;;;;;;10.60;1.00;;;;;;5097504;28;19914;-76
2024/02/23 15:25:27;;;;;;;;;;;10.60;1.00;;;;;;5097623;28;19923;-75
2024/02/23 15:27:57;;;;;;;;;;;10.60;1.00;;;;;;5098341;28;19938;-75
2024/02/23 15:30:39;;;;;;;;;;;10.40;1.00;;;;;;5093421;28;20472;-76
2024/02/23 15:33:21;;;;;;;;;;;;;;;;;;5089395;28;20441;-77
2024/02/23 15:35:51;;;;;;;;;;;10.20;1.00;;;;;;5084491;28;19908;-77
2024/02/23 15:38:16;;;;;;;;;;;10.20;1.00;;;;;;5095589;28;19916;-78
2024/02/23 15:43:45;;;;;;;;;;;10.20;1.00;;;;;;5111862;28;20027;-82
2024/02/23 15:49:13;;;;;;;;;;;9.90;1.00;;;;;;5080817;28;20394;-81
2024/02/23 15:51:57;;;;;;;;;;;9.80;1.00;;;;;;5076640;28;19912;-81
2024/02/23 15:57:25;;;;;;;;;;;9.70;1.00;;;;;;5088174;28;19919;-74
2024/02/23 16:00:04;;;;;;;;;;;9.90;1.00;;;;;;5094690;28;19951;-74
2024/02/23 16:02:30;;;;;;;;;;;10.00;1.00;;;;;;5084176;28;19912;-74
2024/02/23 16:05:03;;;;;;;;;;;10.40;1.00;;;;;;5093915;28;19916;-75
2024/02/23 16:07:29;;;;;;;;;;;10.40;1.00;;;;;;5084495;28;19908;-74
2024/02/23 16:09:55;;;;;;;;;;;10.80;1.00;;;;;;5076430;28;20303;-74
2024/02/23 16:15:27;;;;;;;;;;;10.70;1.00;;;;;;5082431;28;19919;-80
2024/02/23 16:17:54;;;;;;;;;;;10.30;1.00;;;;;;5082536;28;20263;-74
2024/02/23 16:20:45;;;;;;;;;;;10.00;1.00;;;;;;5086999;28;19912;-75
2024/02/23 16:23:11;;;;;;;;;;;9.90;1.00;;;;;;5093202;28;19927;-76
2024/02/23 16:25:51;;;;;;;;;;;9.60;1.00;;;;;;5096323;28;19915;-76
2024/02/23 16:28:33;;;;;;;;;;;9.50;1.00;;;;;;5103025;28;19957;-77
2024/02/23 16:30:59;;;;;;;;;;;9.10;1.00;;;;;;5088338;28;19908;-76
2024/02/23 16:33:27;;;;;;;;;;;9.10;1.00;;;;;;5093487;28;20006;-76
2024/02/23 16:35:57;;;;;;;;;;;9.00;1.00;;;;;;5099169;28;19916;-76
2024/02/23 16:38:27;;;;;;;;;;;8.80;1.00;;;;;;5096557;28;19919;-77
2024/02/23 16:40:53;;;;;;;;;;;8.60;1.00;;;;;;5094967;28;19916;-77
2024/02/23 16:43:21;;;;;;;;;;;8.40;1.00;;;;;;5094062;28;20355;-80
2024/02/23 16:45:47;;;;;;;;;;;8.40;1.00;;;;;;5093828;28;20017;-76
2024/02/23 16:48:39;;;;;;;;;;;8.20;1.00;;;;;;5089312;28;19958;-77
2024/02/23 16:51:21;;;;;;;;;;;8.10;1.00;;;;;;5094971;28;19912;-76
2024/02/23 16:53:57;;;;;;;;;;;7.90;1.00;;;;;;5104368;28;19968;-75
2024/02/23 16:59:25;;;;;;;;;;;7.90;1.00;;;;;;5088511;28;19978;-78
2024/02/23 17:01:57;;;;;;;;;;;8.00;1.00;;;;;;5093942;28;20367;-77
2024/02/23 17:04:39;;;;;;;;;;;7.90;1.00;;;;;;5093748;28;19918;-77
2024/02/23 17:10:33;;;;;;;;;;;7.80;1.00;;;;;;5092313;28;19918;-76
2024/02/23 17:16:01;;;;;;;;;;;7.80;1.00;;;;;;5093260;28;19981;-78
2024/02/23 17:18:57;;;;;;;;;;;7.80;1.00;;;;;;5078235;28;20370;-77
2024/02/23 17:21:23;;;;;;;;;;;7.80;1.00;;;;;;5095127;28;20366;-79
2024/02/23 17:24:21;;;;;;;;;;;7.80;1.00;;;;;;5093427;28;19914;-78
2024/02/23 17:30:11;;;;;;;;;;;7.80;1.00;;;;;;5099425;28;19920;-77
2024/02/23 17:38:42;;;;;;;;;;;7.80;1.00;;;;;;5077090;28;19996;-78
2024/02/23 17:44:11;;;;;;;;;;;7.80;1.00;;;;;;5096945;28;20432;-77
2024/02/23 17:55:46;;;;;;;;;;;7.80;1.00;;;;;;5096619;28;20426;-79
2024/02/23 18:01:15;;;;;;;;;;;7.80;1.00;;;;;;5076710;28;19919;-77
2024/02/23 18:03:57;;;;;;;;;;;7.80;1.00;;;;;;5090921;28;20339;-76
2024/02/23 18:12:29;;;;;;;;;;;8.00;1.00;;;;;;5096449;28;20374;-76
2024/02/23 18:15:27;;;;;;;;;;;8.20;1.00;;;;;;5079227;28;19952;-79
2024/02/23 18:18:08;;;;;;;;;;;8.10;1.00;;;;;;5093309;28;19908;-81
2024/02/23 18:29:43;;;;;;;;;;;8.10;1.00;;;;;;5089994;28;19915;-77
2024/02/23 18:32:15;;;;;;;;;;;8.00;1.00;;;;;;5095704;28;19908;-79
2024/02/23 18:34:51;;;;;;;;;;;8.00;1.00;;;;;;5096271;28;19915;-76
2024/02/23 18:37:21;;;;;;;;;;;8.00;1.00;;;;;;5095803;28;19908;-76
2024/02/23 18:39:53;;;;;;;;;;;8.00;1.00;;;;;;5096134;28;19908;-75
2024/02/23 18:42:21;;;;;;;;;;;7.90;1.00;;;;;;5105987;28;19915;-76
2024/02/23 18:44:48;;;;;;;;;;;7.90;1.00;;;;;;5105757;28;19916;-75
2024/02/23 18:50:16;;;;;;;;;;;7.70;1.00;;;;;;5095402;28;19918;-76
2024/02/23 18:53:03;;;;;;;;;;;7.70;1.00;;;;;;5108687;28;19990;-76
2024/02/23 18:55:51;;;;;;;;;;;7.50;1.00;;;;;;5103231;28;19908;-77
2024/02/23 19:01:45;;;;;;;;;;;7.30;1.00;;;;;;5083565;28;19919;-78
2024/02/23 19:07:15;;;;;;;;;;;7.20;1.00;;;;;;5095492;28;20402;-81
2024/02/23 19:12:43;;;;;;;;;;;7.10;1.00;;;;;;5090870;28;19988;-77
2024/02/23 19:15:21;;;;;;;;;;;7.10;1.00;;;;;;5095761;28;19908;-76
2024/02/23 19:18:10;;;;;;;;;;;7.10;1.00;;;;;;5095266;28;19908;-77
2024/02/23 19:23:39;;;;;;;;;;;7.20;1.00;;;;;;5095071;28;19915;-80
2024/02/23 19:26:39;;;;;;;;;;;7.20;1.00;;;;;;5088051;28;19916;-82
2024/02/23 19:32:08;;;;;;;;;;;7.20;1.00;;;;;;5094971;28;19915;-82
2024/02/23 19:38:09;;;;;;;;;;;7.20;1.00;;;;;;5094986;28;19919;-86
2024/02/23 19:40:51;;;;;;;;;;;7.30;1.00;;;;;;5093926;28;19912;-77
2024/02/23 19:43:17;;;;;;;;;;;7.30;1.00;;;;;;5094659;28;19947;-78
2024/02/23 19:45:42;;;;;;;;;;;7.60;1.00;;;;;;5095060;28;20073;-76
2024/02/23 19:54:14;;;;;;;;;;;7.40;1.00;;;;;;5114095;28;19918;-80
2024/02/23 20:05:48;;;;;;;;;;;7.30;1.00;;;;;;5094033;28;19919;-80
2024/02/23 20:11:17;;;;;;;;;;;7.20;1.00;;;;;;5074197;28;20283;-80
2024/02/23 20:16:45;;;;;;;;;;;7.10;1.00;;;;;;5094260;28;19942;-80
2024/02/23 20:19:10;;;;;;;;;;;7.00;1.00;;;;;;5080194;28;19920;-76
2024/02/23 20:21:38;;;;;;;;;;;7.00;1.00;;;;;;5100434;28;19908;-76
2024/02/23 20:24:15;;;;;;;;;;;6.90;1.00;;;;;;5094153;28;19923;-76
2024/02/23 20:26:45;;;;;;;;;;;6.80;1.00;;;;;;5093897;28;19912;-76
2024/02/23 20:29:39;;;;;;;;;;;6.80;1.00;;;;;;5110189;28;19912;-76
2024/02/23 20:32:16;;;;;;;;;;;6.80;1.00;;;;;;5094129;28;20368;-76
2024/02/23 20:34:57;;;;;;;;;;;6.70;1.00;;;;;;5093539;28;19919;-76
2024/02/23 20:37:24;;;;;;;;;;;6.70;1.00;;;;;;5094117;28;19962;-76
2024/02/23 20:42:53;;;;;;;;;;;6.70;1.00;;;;;;5093892;28;19915;-76
2024/02/23 20:45:27;;;;;;;;;;;6.70;1.00;;;;;;5094022;28;19920;-76
2024/02/23 20:48:13;;;;;;;;;;;6.70;1.00;;;;;;5093890;28;20002;-76
2024/02/23 20:50:39;;;;;;;;;;;6.70;1.00;;;;;;5094151;28;19915;-77
2024/02/23 20:53:12;;;;;;;;;;;6.60;1.00;;;;;;5086411;28;19909;-76
2024/02/23 20:55:37;;;;;;;;;;;6.60;1.00;;;;;;5078669;28;19919;-76
2024/02/23 20:58:03;;;;;;;;;;;6.50;1.00;;;;;;5094620;28;19916;-77
2024/02/23 21:00:33;;;;;;;;;;;6.30;1.00;;;;;;5093149;28;19909;-77
2024/02/23 21:06:27;;;;;;;;;;;6.10;1.00;;;;;;5095346;28;19935;-76
2024/02/23 21:09:27;;;;;;;;;;;6.10;1.00;;;;;;5097789;28;19912;-76
2024/02/23 21:12:09;;;;;;;;;;;5.90;1.00;;;;;;5097685;28;19908;-76
2024/02/23 21:14:40;;;;;;;;;;;5.80;1.00;;;;;;5097812;28;20003;-76
2024/02/23 21:20:08;;;;;;;;;;;5.60;1.00;;;;;;5086932;28;19927;-80
2024/02/23 21:23:03;;;;;;;;;;;5.50;1.00;;;;;;5079156;28;20197;-80
2024/02/23 21:28:31;;;;;;;;;;;5.20;1.00;;;;;;5096015;28;19919;-83
2024/02/23 21:31:03;;;;;;;;;;;5.20;1.00;;;;;;5096884;28;19912;-80
2024/02/23 21:36:39;;;;;;;;;;;4.90;1.00;;;;;;5096930;28;19945;-81
2024/02/23 21:39:39;;;;;;;;;;;4.90;1.00;;;;;;5097285;28;19915;-81
2024/02/23 21:42:15;;;;;;;;;;;4.80;1.00;;;;;;5079021;28;19998;-81
2024/02/23 21:45:03;;;;;;;;;;;4.70;1.00;;;;;;5116927;28;19969;-81
2024/02/23 21:47:51;;;;;;;;;;;4.70;1.00;;;;;;5094106;28;19950;-77
2024/02/23 21:50:27;;;;;;;;;;;4.70;1.00;;;;;;5091046;28;20252;-76
2024/02/23 21:55:56;;;;;;;;;;;4.70;1.00;;;;;;5076638;28;19919;-76
2024/02/23 21:58:39;;;;;;;;;;;4.60;1.00;;;;;;5081336;28;19908;-76
2024/02/23 22:07:21;;;;;;;;;;;4.40;1.00;;;;;;5096743;28;19962;-76
2024/02/23 22:09:53;;;;;;;;;;;4.30;1.00;;;;;;5096772;28;20371;-76
2024/02/23 22:12:33;;;;;;;;;;;4.30;1.00;;;;;;5096757;28;19912;-77
2024/02/23 22:18:33;;;;;;;;;;;4.00;1.00;;;;;;5092660;28;19919;-81
2024/02/23 22:24:02;;;;;;;;;;;4.00;1.00;;;;;;5096270;28;20375;-81
2024/02/23 22:32:36;;;;;;;;;;;3.70;1.00;;;;;;5096022;28;19992;-76
2024/02/23 22:41:08;;;;;;;;;;;3.50;1.00;;;;;;5115690;28;19974;-76
2024/02/23 22:43:33;;;;;;;;;;;3.40;1.00;;;;;;5095754;28;19920;-76
2024/02/23 22:46:21;;;;;;;;;;;3.30;1.00;;;;;;5095043;28;19960;-76
2024/02/23 22:51:56;;;;;;;;;;;3.30;1.00;;;;;;5095973;28;19919;-81
2024/02/23 22:57:24;;;;;;;;;;;3.20;1.00;;;;;;5109230;28;19947;-81
2024/02/23 22:59:50;;;;;;;;;;;3.20;1.00;;;;;;5095204;28;19912;-81
2024/02/23 23:02:33;;;;;;;;;;;3.20;1.00;;;;;;5096076;28;19916;-81
2024/02/23 23:14:07;;;;;;;;;;;3.00;1.00;;;;;;5075260;28;20369;-81
2024/02/23 23:16:33;;;;;;;;;;;2.90;1.00;;;;;;5092358;28;19959;-81
2024/02/23 23:18:59;;;;;;;;;;;2.90;1.00;;;;;;5086325;28;19961;-81
2024/02/23 23:21:25;;;;;;;;;;;2.80;1.00;;;;;;5085422;28;19977;-81
2024/02/23 23:24:28;;;;;;;;;;;2.80;1.00;;;;;;5094136;28;19999;-81
2024/02/23 23:29:56;;;;;;;;;;;2.80;1.00;;;;;;5081425;28;19914;-82